Time;durP1;ratioP1;P1;durP2;ratioP2;P2;SDS_P1;SDS_P2;PMS_P1;PMS_P2;Temp;Humidity;BMP_temperature;BMP_pressure;BME280_temperature;BME280_humidity;BME280_pressure;Samples;Min_cycle;Max_cycle;Signal;HPM_P1;HPM_P2
2022/09/23 00:01:26;;;;;;;8.93;4.80;;;;;;;;;;5045639;28;20510;-61
2022/09/23 00:03:51;;;;;;;7.43;4.50;;;;;;;;;;5044725;28;20059;-60
2022/09/23 00:06:19;;;;;;;9.30;5.20;;;;;;;;;;5046803;28;20039;-61
2022/09/23 00:08:48;;;;;;;10.00;4.97;;;;;;;;;;5045888;28;20048;-61
2022/09/23 00:11:23;;;;;;;9.40;4.80;;;;;;;;;;5049997;28;20537;-61
2022/09/23 00:13:51;;;;;;;8.95;4.85;;;;;;;;;;5046366;28;20045;-61
2022/09/23 00:16:23;;;;;;;8.95;5.20;;;;;;;;;;5046350;28;20045;-61
2022/09/23 00:18:51;;;;;;;9.60;4.60;;;;;;;;;;5037332;28;20018;-61
2022/09/23 00:21:18;;;;;;;9.65;4.93;;;;;;;;;;5026714;28;20025;-61
2022/09/23 00:23:44;;;;;;;9.77;5.25;;;;;;;;;;5044074;28;20082;-61
2022/09/23 00:26:12;;;;;;;7.80;4.22;;;;;;;;;;5018994;28;20046;-61
2022/09/23 00:28:37;;;;;;;8.23;4.80;;;;;;;;;;5021661;28;20038;-61
2022/09/23 00:31:05;;;;;;;8.07;4.63;;;;;;;;;;5010696;28;20578;-61
2022/09/23 00:33:30;;;;;;;10.93;5.45;;;;;;;;;;5026006;28;20227;-61
2022/09/23 00:36:00;;;;;;;9.48;4.63;;;;;;;;;;5046347;28;20769;-61
2022/09/23 00:38:26;;;;;;;9.20;4.78;;;;;;;;;;5046024;28;20508;-61
2022/09/23 00:40:51;;;;;;;8.63;5.10;;;;;;;;;;5044859;28;20127;-61
2022/09/23 00:43:17;;;;;;;8.48;5.10;;;;;;;;;;5035942;28;20041;-61
2022/09/23 00:45:47;;;;;;;8.48;4.78;;;;;;;;;;5026278;28;20064;-61
2022/09/23 00:48:16;;;;;;;8.82;4.97;;;;;;;;;;5026514;28;20046;-61
2022/09/23 00:50:46;;;;;;;9.38;5.13;;;;;;;;;;5026072;28;20142;-61
2022/09/23 00:53:18;;;;;;;9.85;4.93;;;;;;;;;;5039531;28;20041;-61
2022/09/23 00:55:51;;;;;;;9.15;4.88;;;;;;;;;;5017300;28;20103;-61
2022/09/23 00:58:20;;;;;;;8.77;4.63;;;;;;;;;;5016115;28;20171;-61
2022/09/23 01:00:46;;;;;;;7.60;4.55;;;;;;;;;;5029882;28;20052;-61
2022/09/23 01:03:12;;;;;;;8.38;5.13;;;;;;;;;;5044918;28;20029;-61
2022/09/23 01:05:38;;;;;;;7.20;4.53;;;;;;;;;;5029611;28;20045;-61
2022/09/23 01:08:07;;;;;;;8.93;5.40;;;;;;;;;;5029133;28;20068;-61
2022/09/23 01:11:05;;;;;;;8.50;5.00;;;;;;;;;;5029263;28;20042;-61
2022/09/23 01:13:51;;;;;;;9.35;4.75;;;;;;;;;;5029031;28;20079;-61
2022/09/23 01:16:31;;;;;;;8.73;5.25;;;;;;;;;;5029318;28;20596;-61
2022/09/23 01:19:16;;;;;;;8.85;5.30;;;;;;;;;;5029249;28;20068;-61
2022/09/23 01:21:41;;;;;;;9.43;4.95;;;;;;;;;;5029060;28;20041;-61
2022/09/23 01:24:56;;;;;;;7.75;4.78;;;;;;;;;;5027444;28;20026;-61
2022/09/23 01:27:36;;;;;;;8.35;5.20;;;;;;;;;;5044645;28;20081;-61
2022/09/23 01:30:29;;;;;;;10.25;4.78;;;;;;;;;;5028962;28;20125;-61
2022/09/23 01:32:58;;;;;;;10.52;4.95;;;;;;;;;;5033540;28;20040;-61
2022/09/23 01:35:59;;;;;;;14.32;5.18;;;;;;;;;;5048743;28;20046;-61
2022/09/23 01:38:30;;;;;;;9.35;4.40;;;;;;;;;;5048124;28;20045;-61
2022/09/23 01:41:22;;;;;;;9.15;4.90;;;;;;;;;;5048062;28;20128;-61
2022/09/23 01:44:02;;;;;;;12.70;5.13;;;;;;;;;;5056037;28;20040;-61
2022/09/23 01:46:38;;;;;;;7.72;4.95;;;;;;;;;;5047964;28;20511;-61
2022/09/23 01:49:06;;;;;;;8.75;5.25;;;;;;;;;;5048553;28;20410;-61
2022/09/23 01:51:37;;;;;;;7.13;4.57;;;;;;;;;;5048547;28;20048;-61
2022/09/23 01:54:17;;;;;;;8.38;4.97;;;;;;;;;;5048845;28;20560;-60
2022/09/23 01:56:51;;;;;;;8.30;4.75;;;;;;;;;;5040716;28;20789;-61
2022/09/23 01:59:41;;;;;;;9.88;5.15;;;;;;;;;;5028020;28;20590;-61
2022/09/23 02:02:15;;;;;;;7.45;4.40;;;;;;;;;;5028532;28;20120;-61
2022/09/23 02:04:45;;;;;;;9.25;5.07;;;;;;;;;;5027848;28;20044;-61
2022/09/23 02:07:19;;;;;;;9.50;5.15;;;;;;;;;;5035342;28;20033;-61
2022/09/23 02:09:49;;;;;;;8.55;4.65;;;;;;;;;;5047988;28;20572;-61
2022/09/23 02:12:19;;;;;;;8.05;4.78;;;;;;;;;;5048612;28;20025;-61
2022/09/23 02:15:15;;;;;;;8.10;4.75;;;;;;;;;;5047689;28;20033;-61
2022/09/23 02:17:52;;;;;;;8.77;4.60;;;;;;;;;;5031099;28;20601;-60
2022/09/23 02:20:23;;;;;;;9.00;4.68;;;;;;;;;;5028110;28;20110;-61
2022/09/23 02:22:54;;;;;;;10.75;5.28;;;;;;;;;;5027900;28;20522;-61
2022/09/23 02:25:23;;;;;;;11.27;5.13;;;;;;;;;;5033131;28;20132;-61
2022/09/23 02:28:20;;;;;;;7.57;4.50;;;;;;;;;;5046742;28;20513;-61
2022/09/23 02:30:50;;;;;;;7.35;4.53;;;;;;;;;;5057196;28;20129;-60
2022/09/23 02:33:21;;;;;;;6.85;4.55;;;;;;;;;;5047848;28;20025;-61
2022/09/23 02:36:08;;;;;;;6.50;4.03;;;;;;;;;;5047922;28;20108;-61
2022/09/23 02:38:50;;;;;;;8.27;4.53;;;;;;;;;;5047624;28;20040;-61
2022/09/23 02:41:44;;;;;;;7.65;4.25;;;;;;;;;;5044380;28;20057;-61
2022/09/23 02:44:15;;;;;;;8.90;4.30;;;;;;;;;;5046290;28;20040;-61
2022/09/23 02:46:44;;;;;;;10.20;4.80;;;;;;;;;;5051234;28;20112;-61
2022/09/23 02:49:18;;;;;;;6.13;4.15;;;;;;;;;;5047692;28;20111;-60
2022/09/23 02:51:44;;;;;;;8.65;4.25;;;;;;;;;;5046882;28;20052;-61
2022/09/23 02:54:13;;;;;;;6.97;3.97;;;;;;;;;;5048034;28;20045;-61
2022/09/23 02:56:39;;;;;;;7.45;4.38;;;;;;;;;;5046875;28;20025;-61
2022/09/23 02:59:06;;;;;;;8.15;4.15;;;;;;;;;;5047165;28;20048;-61
2022/09/23 03:01:51;;;;;;;10.23;4.30;;;;;;;;;;5047309;28;20112;-61
2022/09/23 03:04:41;;;;;;;8.70;3.97;;;;;;;;;;5046729;28;20124;-61
2022/09/23 03:07:17;;;;;;;8.88;4.68;;;;;;;;;;5046475;28;20033;-61
2022/09/23 03:10:10;;;;;;;7.15;4.20;;;;;;;;;;5046351;28;20498;-61
2022/09/23 03:12:51;;;;;;;7.68;4.20;;;;;;;;;;5046959;28;20606;-61
2022/09/23 03:15:35;;;;;;;6.53;4.35;;;;;;;;;;5045922;28;20055;-61
2022/09/23 03:18:22;;;;;;;6.95;4.13;;;;;;;;;;5046075;28;20047;-61
2022/09/23 03:20:51;;;;;;;8.18;4.22;;;;;;;;;;5046568;28;20037;-61
2022/09/23 03:23:23;;;;;;;12.07;4.57;;;;;;;;;;5046452;28;20513;-60
2022/09/23 03:25:51;;;;;;;8.63;4.15;;;;;;;;;;5033912;28;20033;-61
2022/09/23 03:28:19;;;;;;;7.57;4.60;;;;;;;;;;5027012;28;20037;-61
2022/09/23 03:30:45;;;;;;;11.32;4.80;;;;;;;;;;5026317;28;20029;-60
2022/09/23 03:33:14;;;;;;;8.27;4.72;;;;;;;;;;5026197;28;20487;-61
2022/09/23 03:38:42;;;;;;;6.20;3.78;;;;;;;;;;5026422;28;20183;-61
2022/09/23 03:41:10;;;;;;;7.45;4.20;;;;;;;;;;5026557;28;20745;-61
2022/09/23 03:43:37;;;;;;;8.57;4.35;;;;;;;;;;5026392;28;20426;-61
2022/09/23 03:46:03;;;;;;;10.85;4.40;;;;;;;;;;5026625;28;20034;-61
2022/09/23 03:48:28;;;;;;;7.95;4.35;;;;;;;;;;5026955;28;20564;-61
2022/09/23 03:50:53;;;;;;;7.50;3.83;;;;;;;;;;5026498;28;20514;-61
2022/09/23 03:53:20;;;;;;;10.40;4.03;;;;;;;;;;5026332;28;20562;-61
2022/09/23 03:55:45;;;;;;;10.15;4.40;;;;;;;;;;5026545;28;20029;-61
2022/09/23 03:58:11;;;;;;;7.55;3.95;;;;;;;;;;5026643;28;20037;-61
2022/09/23 04:00:36;;;;;;;6.25;3.92;;;;;;;;;;5028855;28;20025;-61
2022/09/23 04:03:01;;;;;;;9.30;4.20;;;;;;;;;;5041321;28;20009;-61
2022/09/23 04:05:27;;;;;;;9.57;4.35;;;;;;;;;;5046072;28;20045;-61
2022/09/23 04:07:53;;;;;;;7.95;4.00;;;;;;;;;;5042410;28;20036;-61
2022/09/23 04:10:19;;;;;;;5.93;3.90;;;;;;;;;;5025970;28;20534;-61
2022/09/23 04:12:44;;;;;;;12.38;4.68;;;;;;;;;;5026018;28;20032;-61
2022/09/23 04:15:10;;;;;;;6.70;3.58;;;;;;;;;;5027037;28;20018;-61
2022/09/23 04:17:36;;;;;;;6.93;3.83;;;;;;;;;;5026109;28;20096;-60
2022/09/23 04:20:02;;;;;;;6.47;3.75;;;;;;;;;;5025490;28;20034;-61
2022/09/23 04:22:27;;;;;;;8.60;3.50;;;;;;;;;;5026081;28;20036;-61
2022/09/23 04:24:53;;;;;;;7.18;3.53;;;;;;;;;;5024379;28;20571;-61
2022/09/23 04:27:18;;;;;;;5.80;3.47;;;;;;;;;;5025290;28;20021;-61
2022/09/23 04:29:43;;;;;;;8.93;4.13;;;;;;;;;;5026936;28;20029;-60
2022/09/23 04:32:09;;;;;;;8.00;3.55;;;;;;;;;;5029423;28;20044;-61
2022/09/23 04:34:34;;;;;;;10.85;4.10;;;;;;;;;;5029764;28;20041;-61
2022/09/23 04:36:59;;;;;;;8.38;3.97;;;;;;;;;;5030046;28;20033;-61
2022/09/23 04:39:25;;;;;;;4.90;3.00;;;;;;;;;;5039778;28;20013;-61
2022/09/23 04:41:50;;;;;;;5.82;3.50;;;;;;;;;;5049530;28;20116;-61
2022/09/23 04:44:16;;;;;;;9.25;3.58;;;;;;;;;;5049847;28;20063;-61
2022/09/23 04:46:42;;;;;;;10.38;3.72;;;;;;;;;;5042071;28;20038;-61
2022/09/23 04:49:08;;;;;;;7.32;3.85;;;;;;;;;;5008840;28;20141;-61
2022/09/23 04:51:33;;;;;;;6.88;3.63;;;;;;;;;;5010006;28;20069;-61
2022/09/23 04:53:59;;;;;;;7.80;3.95;;;;;;;;;;5010471;28;20029;-61
2022/09/23 04:56:27;;;;;;;7.88;4.18;;;;;;;;;;5019751;28;20029;-61
2022/09/23 04:58:53;;;;;;;10.38;3.78;;;;;;;;;;5029849;28;20055;-61
2022/09/23 05:01:25;;;;;;;5.82;4.00;;;;;;;;;;5029235;28;20137;-61
2022/09/23 05:03:53;;;;;;;8.48;3.90;;;;;;;;;;5029605;28;20022;-61
2022/09/23 05:06:19;;;;;;;5.85;3.58;;;;;;;;;;5033149;28;20100;-61
2022/09/23 05:08:50;;;;;;;5.85;3.70;;;;;;;;;;5029288;28;20092;-61
2022/09/23 05:11:17;;;;;;;8.25;3.80;;;;;;;;;;5029222;28;20592;-61
2022/09/23 05:13:43;;;;;;;10.30;4.50;;;;;;;;;;5029037;28;20056;-61
2022/09/23 05:16:11;;;;;;;5.93;3.40;;;;;;;;;;5034142;28;20029;-60
2022/09/23 05:18:39;;;;;;;5.40;3.42;;;;;;;;;;5045921;28;20052;-61
2022/09/23 05:21:06;;;;;;;7.28;3.40;;;;;;;;;;5020667;28;20076;-61
2022/09/23 05:23:32;;;;;;;11.00;3.92;;;;;;;;;;5009342;28;20527;-61
2022/09/23 05:26:03;;;;;;;9.68;3.72;;;;;;;;;;5020611;28;20026;-61
2022/09/23 05:28:31;;;;;;;8.93;3.47;;;;;;;;;;5028993;28;20057;-61
2022/09/23 05:31:03;;;;;;;7.30;4.05;;;;;;;;;;5028489;28;20103;-61
2022/09/23 05:33:29;;;;;;;12.23;3.92;;;;;;;;;;5029103;28;20031;-61
2022/09/23 05:35:54;;;;;;;9.38;4.50;;;;;;;;;;5028406;28;20030;-61
2022/09/23 05:38:19;;;;;;;11.73;4.60;;;;;;;;;;5028898;28;20045;-61
2022/09/23 05:40:45;;;;;;;11.38;3.72;;;;;;;;;;5035430;28;20051;-61
2022/09/23 05:43:10;;;;;;;12.95;3.88;;;;;;;;;;5027143;28;20044;-62
2022/09/23 05:45:35;;;;;;;9.73;3.97;;;;;;;;;;5026927;28;20033;-61
2022/09/23 05:48:01;;;;;;;10.40;4.30;;;;;;;;;;5029222;28;20029;-61
2022/09/23 05:50:26;;;;;;;8.88;3.80;;;;;;;;;;5028250;28;20053;-61
2022/09/23 05:52:51;;;;;;;8.23;3.97;;;;;;;;;;5027514;28;20037;-61
2022/09/23 05:55:17;;;;;;;14.05;3.60;;;;;;;;;;5027243;28;20040;-61
2022/09/23 05:57:42;;;;;;;6.03;3.25;;;;;;;;;;5031678;28;20027;-61
2022/09/23 06:00:08;;;;;;;12.88;3.70;;;;;;;;;;5028694;28;20031;-61
2022/09/23 06:02:33;;;;;;;8.07;3.83;;;;;;;;;;5028715;28;20132;-61
2022/09/23 06:04:59;;;;;;;9.55;3.97;;;;;;;;;;5028130;28;20120;-61
2022/09/23 06:07:25;;;;;;;11.02;3.90;;;;;;;;;;5028559;28;20025;-61
2022/09/23 06:09:52;;;;;;;5.90;3.88;;;;;;;;;;5025965;28;20063;-61
2022/09/23 06:12:18;;;;;;;7.95;3.70;;;;;;;;;;5029031;28;20025;-61
2022/09/23 06:14:43;;;;;;;7.68;3.75;;;;;;;;;;5044691;28;20037;-61
2022/09/23 06:17:09;;;;;;;10.05;4.03;;;;;;;;;;5032321;28;20036;-60
2022/09/23 06:19:34;;;;;;;9.27;4.80;;;;;;;;;;5049245;28;20029;-61
2022/09/23 06:21:59;;;;;;;9.05;3.78;;;;;;;;;;5042651;28;20137;-61
2022/09/23 06:24:24;;;;;;;15.05;4.35;;;;;;;;;;5046201;28;20409;-61
2022/09/23 06:26:50;;;;;;;9.80;4.30;;;;;;;;;;5029212;28;20422;-62
2022/09/23 06:29:17;;;;;;;8.73;3.72;;;;;;;;;;5026485;28;20113;-62
2022/09/23 06:31:42;;;;;;;14.88;4.63;;;;;;;;;;5024100;28;20411;-62
2022/09/23 06:34:12;;;;;;;9.65;4.03;;;;;;;;;;5029675;28;20541;-62
2022/09/23 06:36:37;;;;;;;8.77;4.32;;;;;;;;;;5025999;28;20051;-62
2022/09/23 06:39:02;;;;;;;14.02;4.63;;;;;;;;;;5048428;28;20112;-62
2022/09/23 06:41:28;;;;;;;5.97;3.42;;;;;;;;;;5030927;28;20091;-62
2022/09/23 06:43:54;;;;;;;8.82;3.95;;;;;;;;;;5026642;28;20053;-62
2022/09/23 06:46:19;;;;;;;5.82;3.40;;;;;;;;;;5025161;28;20034;-62
2022/09/23 06:48:47;;;;;;;6.05;3.60;;;;;;;;;;5024164;28;20096;-62
2022/09/23 06:51:20;;;;;;;6.35;3.65;;;;;;;;;;5024349;28;20079;-62
2022/09/23 06:53:49;;;;;;;7.77;3.73;;;;;;;;;;5039622;28;20911;-62
2022/09/23 06:56:16;;;;;;;10.60;3.97;;;;;;;;;;5026347;28;20283;-62
2022/09/23 06:58:42;;;;;;;6.88;3.83;;;;;;;;;;5024138;28;20044;-62
2022/09/23 07:01:09;;;;;;;10.02;3.97;;;;;;;;;;5026192;28;20029;-62
2022/09/23 07:03:35;;;;;;;5.60;3.70;;;;;;;;;;5038994;28;20017;-62
2022/09/23 07:06:01;;;;;;;11.27;3.35;;;;;;;;;;5027052;28;20031;-62
2022/09/23 07:08:28;;;;;;;11.77;4.07;;;;;;;;;;5027031;28;20091;-62
2022/09/23 07:10:56;;;;;;;10.02;3.90;;;;;;;;;;5030200;28;20033;-63
2022/09/23 07:13:22;;;;;;;11.55;4.25;;;;;;;;;;5062314;28;20106;-65
2022/09/23 07:15:52;;;;;;;9.40;4.00;;;;;;;;;;5047064;28;20580;-65
2022/09/23 07:18:28;;;;;;;9.07;4.00;;;;;;;;;;5047170;22;20065;-91
2022/09/23 07:34:46;;;;;;;7.63;3.75;;;;;;;;;;5193016;22;20073;-93
2022/09/23 07:37:12;;;;;;;7.30;3.33;;;;;;;;;;5052247;28;20037;-94
2022/09/23 07:39:38;;;;;;;7.53;3.50;;;;;;;;;;5028421;28;20116;-93
2022/09/23 07:42:05;;;;;;;6.80;3.65;;;;;;;;;;5046264;28;20028;-94
2022/09/23 07:44:31;;;;;;;12.75;3.55;;;;;;;;;;5045459;28;20088;-95
2022/09/23 07:46:58;;;;;;;5.10;3.25;;;;;;;;;;5052608;28;20041;-93
2022/09/23 07:49:24;;;;;;;6.55;3.47;;;;;;;;;;5034991;28;20544;-94
2022/09/23 07:52:04;;;;;;;;;;;;;;;;;;;;;
2022/09/23 07:54:31;;;;;;;7.05;2.95;;;;;;;;;;5039942;28;20120;-95
2022/09/23 07:56:58;;;;;;;8.20;3.30;;;;;;;;;;5061682;28;20044;-95
2022/09/23 07:59:24;;;;;;;10.60;3.53;;;;;;;;;;5060035;28;20036;-94
2022/09/23 08:01:53;;;;;;;10.00;3.30;;;;;;;;;;5076676;28;20260;-95
2022/09/23 08:04:28;;;;;;;5.80;3.35;;;;;;;;;;5068850;28;20106;-94
2022/09/23 08:06:56;;;;;;;5.70;3.60;;;;;;;;;;5064635;28;20654;-94
2022/09/23 08:09:25;;;;;;;7.10;3.78;;;;;;;;;;5030907;28;20064;-95
2022/09/23 08:11:51;;;;;;;10.88;3.75;;;;;;;;;;5078079;28;20436;-95
2022/09/23 08:18:10;;;;;;;8.55;3.88;;;;;;;;;;5016301;28;20085;-95
2022/09/23 08:24:00;;;;;;;5.15;3.13;;;;;;;;;;5080743;22;20055;-90
2022/09/23 08:26:27;;;;;;;6.10;3.58;;;;;;;;;;5050703;28;20037;-90
2022/09/23 08:28:55;;;;;;;6.30;3.40;;;;;;;;;;5048179;28;20049;-88
2022/09/23 08:31:22;;;;;;;6.55;3.72;;;;;;;;;;5052686;28;20037;-87
2022/09/23 08:33:52;;;;;;;6.13;3.45;;;;;;;;;;5051706;28;20025;-88
2022/09/23 08:36:17;;;;;;;7.28;3.60;;;;;;;;;;5054373;28;20020;-89
2022/09/23 08:38:43;;;;;;;6.20;3.20;;;;;;;;;;5051752;28;20449;-86
2022/09/23 08:41:14;;;;;;;6.00;3.35;;;;;;;;;;5049515;28;20071;-89
2022/09/23 08:43:48;;;;;;;5.80;3.03;;;;;;;;;;5053072;28;20115;-89
2022/09/23 08:46:20;;;;;;;6.82;3.05;;;;;;;;;;5048081;28;20033;-88
2022/09/23 08:48:48;;;;;;;6.38;3.30;;;;;;;;;;5029942;28;20052;-89
2022/09/23 08:51:18;;;;;;;5.63;3.25;;;;;;;;;;5054121;28;20029;-89
2022/09/23 08:53:45;;;;;;;5.72;3.55;;;;;;;;;;5042080;28;20061;-90
2022/09/23 08:56:14;;;;;;;6.63;3.50;;;;;;;;;;5047487;28;20040;-88
2022/09/23 08:59:02;;;;;;;8.48;3.50;;;;;;;;;;5062933;28;20041;-90
2022/09/23 09:02:04;;;;;;;6.53;3.58;;;;;;;;;;5043214;28;20112;-89
2022/09/23 09:04:36;;;;;;;7.45;3.10;;;;;;;;;;5037822;28;20690;-90
2022/09/23 09:07:13;;;;;;;10.60;4.25;;;;;;;;;;5061594;28;20467;-89
2022/09/23 09:09:45;;;;;;;9.32;4.15;;;;;;;;;;5043242;28;20029;-89
2022/09/23 09:12:23;;;;;;;7.83;4.23;;;;;;;;;;5045958;28;20029;-88
2022/09/23 09:14:57;;;;;;;6.25;4.03;;;;;;;;;;5050058;28;20025;-87
2022/09/23 09:17:37;;;;;;;6.32;3.28;;;;;;;;;;5047802;28;20145;-89
2022/09/23 09:20:22;;;;;;;7.82;3.90;;;;;;;;;;5044240;28;20076;-87
2022/09/23 09:22:59;;;;;;;6.60;3.60;;;;;;;;;;5064411;28;20041;-86
2022/09/23 09:25:46;;;;;;;9.23;3.80;;;;;;;;;;5043819;28;20136;-87
2022/09/23 09:28:29;;;;;;;6.85;3.45;;;;;;;;;;5040786;28;20033;-86
2022/09/23 09:30:59;;;;;;;5.00;3.20;;;;;;;;;;5041871;28;20470;-86
2022/09/23 09:33:43;;;;;;;11.13;3.55;;;;;;;;;;5039643;28;20102;-86
2022/09/23 09:36:39;;;;;;;6.57;3.78;;;;;;;;;;5041106;28;20045;-86
2022/09/23 09:39:05;;;;;;;8.05;3.53;;;;;;;;;;5040816;28;20074;-87
2022/09/23 09:41:31;;;;;;;7.13;3.55;;;;;;;;;;5044059;28;20083;-87
2022/09/23 09:43:59;;;;;;;7.15;3.55;;;;;;;;;;5043806;28;20121;-89
2022/09/23 09:46:24;;;;;;;7.15;4.05;;;;;;;;;;5040045;28;20048;-89
2022/09/23 09:49:11;;;;;;;9.48;4.45;;;;;;;;;;5038998;28;20052;-87
2022/09/23 09:51:41;;;;;;;7.38;4.43;;;;;;;;;;5040810;28;20024;-91
2022/09/23 09:54:26;;;;;;;8.35;3.95;;;;;;;;;;5042993;28;20509;-89
2022/09/23 09:56:52;;;;;;;5.88;3.50;;;;;;;;;;5040844;28;20105;-89
2022/09/23 09:59:24;;;;;;;6.45;4.22;;;;;;;;;;5038817;28;20043;-86
2022/09/23 10:02:21;;;;;;;9.17;4.13;;;;;;;;;;5033467;28;20048;-87
2022/09/23 10:04:55;;;;;;;8.80;4.80;;;;;;;;;;5034187;28;20060;-87
2022/09/23 10:07:25;;;;;;;14.18;6.53;;;;;;;;;;5044172;28;20032;-86
2022/09/23 10:09:50;;;;;;;11.80;5.75;;;;;;;;;;5045475;28;20119;-87
2022/09/23 10:12:45;;;;;;;8.15;4.97;;;;;;;;;;5042357;28;20455;-88
2022/09/23 10:15:30;;;;;;;8.48;4.97;;;;;;;;;;5030696;28;20041;-89
2022/09/23 10:17:56;;;;;;;11.00;5.03;;;;;;;;;;5028549;28;20591;-87
2022/09/23 10:20:22;;;;;;;9.68;4.60;;;;;;;;;;5026319;28;20048;-86
2022/09/23 10:22:47;;;;;;;8.57;5.25;;;;;;;;;;5028248;28;20156;-86
2022/09/23 10:25:20;;;;;;;9.00;4.68;;;;;;;;;;5028993;28;20088;-86
2022/09/23 10:27:45;;;;;;;10.85;5.55;;;;;;;;;;5027702;28;20124;-86
2022/09/23 10:30:14;;;;;;;7.78;4.43;;;;;;;;;;5029581;28;20103;-85
2022/09/23 10:32:43;;;;;;;8.40;4.47;;;;;;;;;;5046208;28;20095;-85
2022/09/23 10:35:10;;;;;;;8.38;4.82;;;;;;;;;;5037475;28;20068;-86
2022/09/23 10:37:50;;;;;;;13.13;5.40;;;;;;;;;;5026162;28;20111;-86
2022/09/23 10:49:42;;;;;;;10.57;5.15;;;;;;;;;;5047333;28;20391;-86
2022/09/23 10:52:34;;;;;;;9.70;5.63;;;;;;;;;;5017885;28;20045;-86
2022/09/23 10:55:03;;;;;;;8.30;5.55;;;;;;;;;;5023454;28;20037;-87
2022/09/23 10:57:40;;;;;;;8.98;4.78;;;;;;;;;;5045699;28;20071;-86
2022/09/23 11:00:27;;;;;;;12.90;5.53;;;;;;;;;;5044975;28;20461;-85
2022/09/23 11:03:17;;;;;;;12.50;6.35;;;;;;;;;;5029079;28;20045;-87
2022/09/23 11:06:17;;;;;;;8.75;5.07;;;;;;;;;;5047038;28;20033;-87
2022/09/23 11:09:11;;;;;;;7.97;5.00;;;;;;;;;;5038320;28;20120;-87
2022/09/23 11:11:46;;;;;;;8.40;5.05;;;;;;;;;;5059935;28;20037;-86
2022/09/23 11:14:49;;;;;;;8.05;5.00;;;;;;;;;;5026937;28;20427;-86
2022/09/23 11:17:33;;;;;;;10.90;6.00;;;;;;;;;;5034553;28;20024;-86
2022/09/23 11:20:13;;;;;;;8.85;5.32;;;;;;;;;;5027148;28;20037;-86
2022/09/23 11:23:06;;;;;;;10.07;5.80;;;;;;;;;;5025184;28;20117;-86
2022/09/23 11:26:05;;;;;;;9.20;5.38;;;;;;;;;;5030818;28;20047;-86
2022/09/23 11:28:40;;;;;;;9.73;5.38;;;;;;;;;;5027864;28;20033;-87
2022/09/23 11:31:30;;;;;;;10.60;5.22;;;;;;;;;;5042688;28;20412;-86
2022/09/23 11:33:58;;;;;;;7.68;4.85;;;;;;;;;;5044113;28;20126;-87
2022/09/23 11:36:45;;;;;;;9.30;5.35;;;;;;;;;;5036716;28;20029;-87
2022/09/23 11:39:19;;;;;;;8.18;4.78;;;;;;;;;;5026269;28;20511;-87
2022/09/23 11:41:48;;;;;;;9.63;5.28;;;;;;;;;;5029314;28;20028;-85
2022/09/23 11:44:21;;;;;;;8.93;4.72;;;;;;;;;;5038890;28;20687;-86
2022/09/23 11:46:53;;;;;;;8.25;5.00;;;;;;;;;;5038097;28;20040;-87
2022/09/23 11:49:28;;;;;;;14.02;6.18;;;;;;;;;;5027889;28;20044;-86
2022/09/23 11:52:04;;;;;;;10.93;5.15;;;;;;;;;;5047671;28;20107;-87
2022/09/23 11:55:15;;;;;;;8.48;5.13;;;;;;;;;;5045567;28;20021;-86
2022/09/23 11:58:03;;;;;;;9.77;5.40;;;;;;;;;;5015168;28;20561;-87
2022/09/23 12:00:37;;;;;;;8.73;5.03;;;;;;;;;;5036225;28;20025;-86
2022/09/23 12:03:32;;;;;;;8.63;5.63;;;;;;;;;;5026849;28;20072;-85
2022/09/23 12:06:15;;;;;;;15.90;5.57;;;;;;;;;;5061371;28;20036;-86
2022/09/23 12:08:40;;;;;;;9.68;5.35;;;;;;;;;;5066319;28;20033;-86
2022/09/23 12:11:25;;;;;;;12.30;4.60;;;;;;;;;;5066522;28;20043;-84
2022/09/23 12:14:09;;;;;;;10.00;5.45;;;;;;;;;;5027407;28;20515;-87
2022/09/23 12:17:22;;;;;;;8.35;5.32;;;;;;;;;;5027241;28;20124;-87
2022/09/23 12:19:56;;;;;;;7.10;4.78;;;;;;;;;;4969161;28;20122;-86
2022/09/23 12:22:56;;;;;;;7.72;5.47;;;;;;;;;;5021901;28;20036;-85
2022/09/23 12:25:53;;;;;;;9.38;4.38;;;;;;;;;;5025483;28;20034;-85
2022/09/23 12:28:24;;;;;;;5.40;3.35;;;;;;;;;;5026095;28;20040;-85
2022/09/23 12:34:33;;;;;;;5.40;3.40;;;;;;;;;;4998044;28;20048;-83
2022/09/23 12:37:05;;;;;;;5.10;3.53;;;;;;;;;;5019356;28;20048;-85
2022/09/23 12:39:37;;;;;;;8.60;4.28;;;;;;;;;;5023874;28;21017;-84
2022/09/23 12:42:05;;;;;;;5.13;3.70;;;;;;;;;;5047915;28;20153;-84
2022/09/23 12:44:40;;;;;;;5.80;3.20;;;;;;;;;;5028571;28;20530;-86
2022/09/23 12:47:19;;;;;;;9.13;3.85;;;;;;;;;;5034272;28;20143;-85
2022/09/23 12:49:45;;;;;;;6.22;3.03;;;;;;;;;;5043078;28;20285;-85
2022/09/23 12:52:13;;;;;;;6.60;3.92;;;;;;;;;;5045944;28;20088;-83
2022/09/23 12:54:39;;;;;;;5.60;3.60;;;;;;;;;;5049254;28;20035;-86
2022/09/23 12:57:27;;;;;;;7.60;3.83;;;;;;;;;;5049213;28;20056;-84
2022/09/23 12:59:56;;;;;;;6.90;3.65;;;;;;;;;;5050162;28;20146;-83
2022/09/23 13:08:19;;;;;;;5.25;3.42;;;;;;;;;;5050349;28;20056;-86
2022/09/23 13:10:57;;;;;;;6.45;3.10;;;;;;;;;;5040726;28;20041;-85
2022/09/23 13:13:34;;;;;;;5.78;3.13;;;;;;;;;;5062714;28;20041;-87
2022/09/23 13:16:23;;;;;;;6.82;3.20;;;;;;;;;;5048165;28;20521;-86
2022/09/23 13:18:57;;;;;;;4.88;3.30;;;;;;;;;;5047704;28;20029;-86
2022/09/23 13:21:41;;;;;;;;;;;;;;;;;;5048813;28;20502;-88
2022/09/23 13:24:12;;;;;;;8.82;3.63;;;;;;;;;;5047089;28;19971;-87
2022/09/23 13:26:39;;;;;;;7.90;3.20;;;;;;;;;;5050162;28;20102;-86
2022/09/23 13:29:05;;;;;;;4.43;3.25;;;;;;;;;;5049815;28;20040;-86
2022/09/23 13:31:33;;;;;;;5.38;3.30;;;;;;;;;;5043423;28;20037;-86
2022/09/23 13:34:04;;;;;;;4.57;3.17;;;;;;;;;;5046092;28;20517;-84
2022/09/23 13:36:42;;;;;;;5.80;3.30;;;;;;;;;;5050309;28;20017;-86
2022/09/23 13:39:24;;;;;;;6.35;3.72;;;;;;;;;;5048880;28;20458;-87
2022/09/23 13:41:52;;;;;;;7.43;3.70;;;;;;;;;;5043967;28;20136;-89
2022/09/23 13:44:19;;;;;;;8.43;3.33;;;;;;;;;;5038015;28;20066;-87
2022/09/23 13:46:49;;;;;;;9.55;3.90;;;;;;;;;;5049723;28;20040;-86
2022/09/23 13:49:32;;;;;;;8.25;3.35;;;;;;;;;;5047547;28;20041;-87
2022/09/23 13:51:58;;;;;;;4.82;3.20;;;;;;;;;;5048505;28;20037;-86
2022/09/23 13:54:44;;;;;;;7.63;3.35;;;;;;;;;;5048391;28;20094;-84
2022/09/23 13:57:30;;;;;;;4.40;2.67;;;;;;;;;;5046849;28;20132;-84
2022/09/23 14:00:01;;;;;;;4.75;3.00;;;;;;;;;;5044522;28;20525;-85
2022/09/23 14:02:27;;;;;;;5.05;2.90;;;;;;;;;;5036856;28;20135;-88
2022/09/23 14:04:56;;;;;;;4.82;2.95;;;;;;;;;;5033126;28;20029;-87
2022/09/23 14:07:23;;;;;;;6.22;2.97;;;;;;;;;;5043844;28;20384;-86
2022/09/23 14:09:51;;;;;;;6.90;3.15;;;;;;;;;;5045482;28;20051;-89
2022/09/23 14:12:21;;;;;;;4.57;2.90;;;;;;;;;;5039177;28;20036;-84
2022/09/23 14:14:48;;;;;;;6.28;2.90;;;;;;;;;;5035364;28;20061;-86
2022/09/23 14:17:17;;;;;;;6.43;3.10;;;;;;;;;;5047206;28;20590;-87
2022/09/23 14:19:43;;;;;;;5.38;3.10;;;;;;;;;;5042423;28;20044;-86
2022/09/23 14:22:28;;;;;;;6.25;3.63;;;;;;;;;;5042686;28;20037;-85
2022/09/23 14:24:55;;;;;;;5.80;2.95;;;;;;;;;;5029204;28;20664;-88
2022/09/23 14:27:41;;;;;;;7.63;3.58;;;;;;;;;;5023785;28;20025;-88
2022/09/23 14:30:16;;;;;;;7.00;3.22;;;;;;;;;;5041506;28;20068;-89
2022/09/23 14:32:42;;;;;;;7.57;3.55;;;;;;;;;;5063894;28;20540;-90
2022/09/23 14:35:24;;;;;;;11.23;4.18;;;;;;;;;;5047099;28;20476;-89
2022/09/23 14:40:49;;;;;;;9.68;3.38;;;;;;;;;;5043950;28;20093;-88
2022/09/23 14:43:18;;;;;;;8.68;3.08;;;;;;;;;;5042239;28;20049;-87
2022/09/23 14:45:50;;;;;;;8.95;3.63;;;;;;;;;;5045156;28;20025;-85
2022/09/23 14:48:22;;;;;;;6.65;3.22;;;;;;;;;;5035647;28;20523;-88
2022/09/23 14:51:00;;;;;;;6.53;3.10;;;;;;;;;;5034061;28;20172;-87
2022/09/23 14:53:31;;;;;;;12.15;3.90;;;;;;;;;;5043613;28;20052;-89
2022/09/23 14:56:07;;;;;;;6.65;3.40;;;;;;;;;;5046827;28;20167;-89
2022/09/23 14:58:51;;;;;;;5.60;3.50;;;;;;;;;;5048400;28;20064;-87
2022/09/23 15:01:34;;;;;;;5.00;3.20;;;;;;;;;;5048782;28;20045;-86
2022/09/23 15:04:17;;;;;;;4.68;2.88;;;;;;;;;;5037488;28;20037;-86
2022/09/23 15:06:51;;;;;;;7.97;3.42;;;;;;;;;;5033310;28;20495;-85
2022/09/23 15:09:30;;;;;;;6.38;3.15;;;;;;;;;;5035913;28;20599;-87
2022/09/23 15:11:58;;;;;;;5.70;3.10;;;;;;;;;;5026234;28;20589;-88
2022/09/23 15:14:37;;;;;;;6.40;3.10;;;;;;;;;;5029441;28;20041;-88
2022/09/23 15:17:06;;;;;;;6.90;3.67;;;;;;;;;;5027876;28;20041;-88
2022/09/23 15:19:34;;;;;;;12.80;3.58;;;;;;;;;;5028395;28;20699;-89
2022/09/23 15:21:59;;;;;;;5.50;3.53;;;;;;;;;;5029257;28;20078;-89
2022/09/23 15:24:39;;;;;;;7.05;4.05;;;;;;;;;;5038189;28;20045;-89
2022/09/23 15:27:21;;;;;;;5.80;3.63;;;;;;;;;;5048379;28;20449;-93
2022/09/23 15:29:48;;;;;;;6.57;3.97;;;;;;;;;;5048624;28;20037;-91
2022/09/23 15:32:13;;;;;;;5.00;3.55;;;;;;;;;;5043877;28;20086;-92
2022/09/23 15:34:39;;;;;;;7.50;3.72;;;;;;;;;;5046761;28;20040;-90
2022/09/23 15:37:04;;;;;;;5.60;3.65;;;;;;;;;;5057788;28;20052;-91
2022/09/23 15:39:30;;;;;;;6.38;3.97;;;;;;;;;;5039254;28;20029;-91
2022/09/23 15:41:56;;;;;;;5.55;3.25;;;;;;;;;;5040532;28;20043;-90
2022/09/23 15:44:28;;;;;;;6.70;3.90;;;;;;;;;;5050762;28;20071;-90
2022/09/23 15:46:55;;;;;;;8.65;3.90;;;;;;;;;;5044522;28;20037;-89
2022/09/23 15:49:31;;;;;;;7.45;3.92;;;;;;;;;;5048558;28;20167;-86
2022/09/23 15:52:00;;;;;;;5.68;3.33;;;;;;;;;;5044229;28;20033;-88
2022/09/23 15:54:27;;;;;;;9.50;3.85;;;;;;;;;;5030659;28;20041;-90
2022/09/23 15:56:52;;;;;;;6.53;4.05;;;;;;;;;;5029978;28;20038;-90
2022/09/23 15:59:19;;;;;;;7.55;3.70;;;;;;;;;;5045666;28;20059;-89